FDB41J OBBI-OKKK
Flight info
| Callsign | FDB41J |
|---|---|
| Flight time | 0h 56m |
| Altitude | 26000 |
| Route | BHR075/12L BHR A453 DEBTI |
| Aircraft | A346/H-SDE2E3FGHIJ3J4J5M1RWXY/LB1D1 |
Departure
| Time | 2026-04-27 15:25 |
|---|---|
| Airport | Bahrain International Airport (OBBI) |
Arrival
| Time | 2026-04-27 16:21 |
|---|---|
| Airport | Kuwait International Airport (OKKK) |
| Time | Latitude | Longitude | Altitude | Speed | Heading |
|---|---|---|---|---|---|
| 2026-04-27 15:03 | 26.26884 | 50.62936 | 18 ft | 0 kts | 212° |
| 2026-04-27 15:17 | 26.26882 | 50.62935 | 18 ft | 0 kts | 213° |
| 2026-04-27 15:17 | 26.26894 | 50.62943 | 20 ft | 6 kts | 213° |
| 2026-04-27 15:18 | 26.26896 | 50.62944 | 20 ft | 0 kts | 212° |
| 2026-04-27 15:18 | 26.26931 | 50.62968 | 18 ft | 7 kts | 207° |
| 2026-04-27 15:18 | 26.26961 | 50.62995 | 21 ft | 5 kts | 254° |
| 2026-04-27 15:18 | 26.26960 | 50.63018 | 18 ft | 0 kts | 300° |
| 2026-04-27 15:19 | 26.26961 | 50.63017 | 18 ft | 2 kts | 299° |
| 2026-04-27 15:19 | 26.26985 | 50.62971 | 18 ft | 15 kts | 301° |
| 2026-04-27 15:19 | 26.27052 | 50.62888 | 18 ft | 13 kts | 348° |
| 2026-04-27 15:19 | 26.27145 | 50.62911 | 21 ft | 16 kts | 341° |
| 2026-04-27 15:20 | 26.27222 | 50.62788 | 19 ft | 22 kts | 301° |
| 2026-04-27 15:20 | 26.27280 | 50.62688 | 19 ft | 16 kts | 303° |
| 2026-04-27 15:20 | 26.27346 | 50.62574 | 19 ft | 19 kts | 302° |
| 2026-04-27 15:20 | 26.27426 | 50.62434 | 18 ft | 20 kts | 304° |
| 2026-04-27 15:21 | 26.27509 | 50.62290 | 18 ft | 28 kts | 301° |
| 2026-04-27 15:21 | 26.27606 | 50.62125 | 18 ft | 20 kts | 304° |
| 2026-04-27 15:21 | 26.27694 | 50.61970 | 18 ft | 26 kts | 302° |
| 2026-04-27 15:21 | 26.27773 | 50.61830 | 20 ft | 18 kts | 303° |
| 2026-04-27 15:22 | 26.27856 | 50.61697 | 21 ft | 20 kts | 307° |
| 2026-04-27 15:22 | 26.27974 | 50.61660 | 20 ft | 17 kts | 22° |
| 2026-04-27 15:22 | 26.28020 | 50.61744 | 23 ft | 13 kts | 119° |
| 2026-04-27 15:22 | 26.27955 | 50.61857 | 20 ft | 8 kts | 123° |
| 2026-04-27 15:23 | 26.27947 | 50.61871 | 22 ft | 7 kts | 123° |
| 2026-04-27 15:23 | 26.27917 | 50.61922 | 23 ft | 0 kts | 125° |
| 2026-04-27 15:23 | 26.27902 | 50.61946 | 21 ft | 10 kts | 124° |
| 2026-04-27 15:23 | 26.27856 | 50.62026 | 21 ft | 17 kts | 122° |
| 2026-04-27 15:24 | 26.27837 | 50.62058 | 20 ft | 0 kts | 123° |
| 2026-04-27 15:24 | 26.27837 | 50.62059 | 20 ft | 0 kts | 123° |
| 2026-04-27 15:24 | 26.27836 | 50.62060 | 20 ft | 0 kts | 123° |
| 2026-04-27 15:25 | 26.27828 | 50.62073 | 19 ft | 20 kts | 122° |
| 2026-04-27 15:25 | 26.27584 | 50.62498 | 18 ft | 107 kts | 122° |
| 2026-04-27 15:25 | 26.27045 | 50.63439 | 17 ft | 178 kts | 121° |
| 2026-04-27 15:25 | 26.26323 | 50.64692 | 651 ft | 196 kts | 118° |
| 2026-04-27 15:26 | 26.25887 | 50.66169 | 1508 ft | 211 kts | 95° |
| 2026-04-27 15:26 | 26.26020 | 50.67851 | 2157 ft | 226 kts | 73° |
| 2026-04-27 15:26 | 26.26397 | 50.69562 | 3028 ft | 226 kts | 81° |
| 2026-04-27 15:26 | 26.26656 | 50.71385 | 3364 ft | 259 kts | 78° |
| 2026-04-27 15:27 | 26.27029 | 50.73487 | 3550 ft | 292 kts | 78° |
| 2026-04-27 15:27 | 26.27445 | 50.75788 | 3707 ft | 320 kts | 78° |
| 2026-04-27 15:27 | 26.27885 | 50.78190 | 3783 ft | 304 kts | 78° |
| 2026-04-27 15:27 | 26.28293 | 50.80406 | 3841 ft | 283 kts | 78° |
| 2026-04-27 15:28 | 26.28689 | 50.82536 | 3907 ft | 277 kts | 78° |
| 2026-04-27 15:28 | 26.29072 | 50.84596 | 4278 ft | 266 kts | 78° |
| 2026-04-27 15:28 | 26.29447 | 50.86590 | 4743 ft | 262 kts | 78° |
| 2026-04-27 15:28 | 26.29826 | 50.88597 | 5233 ft | 267 kts | 77° |
| 2026-04-27 15:29 | 26.30203 | 50.90643 | 5723 ft | 270 kts | 78° |
| 2026-04-27 15:29 | 26.30573 | 50.92675 | 6186 ft | 262 kts | 78° |
| 2026-04-27 15:29 | 26.30921 | 50.94600 | 6612 ft | 253 kts | 78° |
| 2026-04-27 15:29 | 26.31267 | 50.96518 | 7076 ft | 253 kts | 78° |
| 2026-04-27 15:30 | 26.31617 | 50.98455 | 7568 ft | 257 kts | 78° |
| 2026-04-27 15:30 | 26.31972 | 51.00417 | 8043 ft | 260 kts | 78° |
| 2026-04-27 15:30 | 26.32332 | 51.02400 | 8542 ft | 262 kts | 78° |
| 2026-04-27 15:30 | 26.32706 | 51.04461 | 8796 ft | 284 kts | 78° |
| 2026-04-27 15:31 | 26.33127 | 51.06712 | 9074 ft | 306 kts | 74° |
| 2026-04-27 15:31 | 26.34105 | 51.08845 | 9396 ft | 321 kts | 45° |
| 2026-04-27 15:31 | 26.35980 | 51.10259 | 9587 ft | 335 kts | 15° |
| 2026-04-27 15:31 | 26.38319 | 51.10532 | 9781 ft | 346 kts | 347° |
| 2026-04-27 15:32 | 26.40584 | 51.09644 | 10252 ft | 347 kts | 328° |
| 2026-04-27 15:32 | 26.42538 | 51.08088 | 10907 ft | 345 kts | 313° |
| 2026-04-27 15:32 | 26.43996 | 51.05984 | 11616 ft | 343 kts | 299° |
| 2026-04-27 15:32 | 26.45135 | 51.03643 | 12276 ft | 344 kts | 295° |
| 2026-04-27 15:33 | 26.46303 | 51.01298 | 12987 ft | 346 kts | 299° |
| 2026-04-27 15:33 | 26.47562 | 50.99000 | 13672 ft | 348 kts | 300° |
| 2026-04-27 15:33 | 26.48835 | 50.96723 | 14215 ft | 352 kts | 300° |
| 2026-04-27 15:33 | 26.50138 | 50.94392 | 14778 ft | 355 kts | 300° |
| 2026-04-27 15:34 | 26.51444 | 50.92040 | 15353 ft | 358 kts | 300° |
| 2026-04-27 15:34 | 26.52756 | 50.89663 | 15923 ft | 361 kts | 299° |
| 2026-04-27 15:34 | 26.54076 | 50.87257 | 16480 ft | 364 kts | 299° |
| 2026-04-27 15:34 | 26.55400 | 50.84837 | 17072 ft | 365 kts | 299° |
| 2026-04-27 15:35 | 26.56727 | 50.82407 | 17646 ft | 367 kts | 299° |
| 2026-04-27 15:35 | 26.58052 | 50.79977 | 18218 ft | 365 kts | 298° |
| 2026-04-27 15:35 | 26.59366 | 50.77564 | 18730 ft | 363 kts | 298° |
| 2026-04-27 15:35 | 26.60673 | 50.75163 | 19264 ft | 360 kts | 298° |
| 2026-04-27 15:36 | 26.61974 | 50.72771 | 19749 ft | 361 kts | 298° |
| 2026-04-27 15:36 | 26.63298 | 50.70331 | 19795 ft | 373 kts | 298° |
| 2026-04-27 15:36 | 26.64657 | 50.67824 | 19802 ft | 380 kts | 298° |
| 2026-04-27 15:36 | 26.66044 | 50.65266 | 19815 ft | 391 kts | 298° |
| 2026-04-27 15:37 | 26.67471 | 50.62632 | 19830 ft | 400 kts | 298° |
| 2026-04-27 15:37 | 26.68932 | 50.59938 | 19818 ft | 409 kts | 298° |
| 2026-04-27 15:37 | 26.70402 | 50.57226 | 19816 ft | 416 kts | 298° |
| 2026-04-27 15:37 | 26.71909 | 50.54447 | 19805 ft | 419 kts | 298° |
| 2026-04-27 15:38 | 26.73416 | 50.51666 | 19799 ft | 416 kts | 298° |
| 2026-04-27 15:38 | 26.74916 | 50.48896 | 19824 ft | 417 kts | 298° |
| 2026-04-27 15:38 | 26.76429 | 50.46096 | 20037 ft | 423 kts | 298° |
| 2026-04-27 15:38 | 26.77949 | 50.43282 | 20419 ft | 423 kts | 298° |
| 2026-04-27 15:39 | 26.79474 | 50.40458 | 20850 ft | 422 kts | 298° |
| 2026-04-27 15:39 | 26.81029 | 50.37674 | 21219 ft | 424 kts | 301° |
| 2026-04-27 15:39 | 26.82902 | 50.35091 | 21474 ft | 432 kts | 310° |
| 2026-04-27 15:39 | 26.85104 | 50.32762 | 21740 ft | 436 kts | 313° |
| 2026-04-27 15:40 | 26.87337 | 50.30454 | 22024 ft | 438 kts | 313° |
| 2026-04-27 15:40 | 26.89581 | 50.28119 | 22300 ft | 440 kts | 313° |
| 2026-04-27 15:40 | 26.91795 | 50.25797 | 22602 ft | 442 kts | 312° |
| 2026-04-27 15:40 | 26.94035 | 50.23432 | 22931 ft | 442 kts | 311° |
| 2026-04-27 15:41 | 26.96276 | 50.21055 | 23203 ft | 444 kts | 311° |
| 2026-04-27 15:41 | 26.98524 | 50.18666 | 23417 ft | 446 kts | 311° |
| 2026-04-27 15:41 | 27.00787 | 50.16260 | 23491 ft | 451 kts | 311° |
| 2026-04-27 15:41 | 27.03071 | 50.13833 | 23713 ft | 452 kts | 311° |
| 2026-04-27 15:42 | 27.05315 | 50.11396 | 24088 ft | 446 kts | 309° |
| 2026-04-27 15:42 | 27.07378 | 50.08822 | 24493 ft | 440 kts | 306° |
| 2026-04-27 15:42 | 27.09353 | 50.06210 | 24926 ft | 436 kts | 304° |
| 2026-04-27 15:42 | 27.11282 | 50.03613 | 25333 ft | 432 kts | 304° |
| 2026-04-27 15:43 | 27.13196 | 50.01040 | 25711 ft | 422 kts | 304° |
| 2026-04-27 15:43 | 27.15045 | 49.98578 | 25750 ft | 405 kts | 304° |
| 2026-04-27 15:43 | 27.16836 | 49.96208 | 25776 ft | 393 kts | 304° |
| 2026-04-27 15:43 | 27.18616 | 49.93849 | 25800 ft | 397 kts | 304° |
| 2026-04-27 15:44 | 27.20404 | 49.91483 | 25800 ft | 396 kts | 304° |
| 2026-04-27 15:44 | 27.22185 | 49.89130 | 25808 ft | 395 kts | 304° |
| 2026-04-27 15:44 | 27.23964 | 49.86782 | 25804 ft | 395 kts | 304° |
| 2026-04-27 15:44 | 27.25721 | 49.84463 | 25803 ft | 394 kts | 304° |
| 2026-04-27 15:45 | 27.27500 | 49.82116 | 25803 ft | 394 kts | 304° |
| 2026-04-27 15:45 | 27.29273 | 49.79775 | 25801 ft | 393 kts | 304° |
| 2026-04-27 15:45 | 27.31041 | 49.77439 | 25797 ft | 393 kts | 304° |
| 2026-04-27 15:45 | 27.32810 | 49.75100 | 25798 ft | 392 kts | 304° |
| 2026-04-27 15:46 | 27.34581 | 49.72757 | 25786 ft | 393 kts | 304° |
| 2026-04-27 15:46 | 27.36350 | 49.70416 | 25797 ft | 393 kts | 304° |
| 2026-04-27 15:46 | 27.38121 | 49.68071 | 25802 ft | 394 kts | 304° |
| 2026-04-27 15:46 | 27.39897 | 49.65718 | 25825 ft | 394 kts | 304° |
| 2026-04-27 15:47 | 27.41673 | 49.63364 | 25807 ft | 395 kts | 304° |
| 2026-04-27 15:47 | 27.43453 | 49.61004 | 25800 ft | 395 kts | 304° |
| 2026-04-27 15:47 | 27.45227 | 49.58650 | 25795 ft | 394 kts | 304° |
| 2026-04-27 15:47 | 27.47002 | 49.56295 | 25794 ft | 394 kts | 304° |
| 2026-04-27 15:48 | 27.48882 | 49.54038 | 25790 ft | 399 kts | 311° |
| 2026-04-27 15:48 | 27.51041 | 49.52047 | 25787 ft | 401 kts | 315° |
| 2026-04-27 15:48 | 27.53235 | 49.50103 | 25788 ft | 401 kts | 315° |
| 2026-04-27 15:49 | 27.57636 | 49.46210 | 25815 ft | 402 kts | 314° |
| 2026-04-27 15:49 | 27.59830 | 49.44252 | 25804 ft | 402 kts | 314° |
| 2026-04-27 15:49 | 27.62017 | 49.42294 | 25797 ft | 402 kts | 314° |
| 2026-04-27 15:49 | 27.64206 | 49.40328 | 25792 ft | 402 kts | 314° |
| 2026-04-27 15:50 | 27.66390 | 49.38363 | 25793 ft | 402 kts | 314° |
| 2026-04-27 15:50 | 27.68576 | 49.36394 | 25794 ft | 402 kts | 314° |
| 2026-04-27 15:50 | 27.70757 | 49.34428 | 25789 ft | 402 kts | 314° |
| 2026-04-27 15:50 | 27.72940 | 49.32459 | 25789 ft | 402 kts | 314° |
| 2026-04-27 15:51 | 27.75120 | 49.30492 | 25810 ft | 401 kts | 314° |
| 2026-04-27 15:51 | 27.77304 | 49.28521 | 25802 ft | 401 kts | 314° |
| 2026-04-27 15:51 | 27.79482 | 49.26553 | 25797 ft | 401 kts | 314° |
| 2026-04-27 15:51 | 27.81663 | 49.24582 | 25793 ft | 401 kts | 314° |
| 2026-04-27 15:52 | 27.83833 | 49.22620 | 25790 ft | 400 kts | 314° |
| 2026-04-27 15:52 | 27.86010 | 49.20652 | 25791 ft | 400 kts | 314° |
| 2026-04-27 15:52 | 27.88236 | 49.18745 | 25789 ft | 404 kts | 319° |
| 2026-04-27 15:52 | 27.90652 | 49.17088 | 25801 ft | 407 kts | 322° |
| 2026-04-27 15:53 | 27.93114 | 49.15503 | 25807 ft | 408 kts | 323° |
| 2026-04-27 15:53 | 27.95568 | 49.13945 | 25805 ft | 409 kts | 323° |
| 2026-04-27 15:53 | 27.98047 | 49.12363 | 25801 ft | 409 kts | 322° |
| 2026-04-27 15:53 | 28.00518 | 49.10770 | 25801 ft | 410 kts | 322° |
| 2026-04-27 15:54 | 28.02993 | 49.09161 | 25800 ft | 411 kts | 322° |
| 2026-04-27 15:54 | 28.05476 | 49.07538 | 25794 ft | 412 kts | 322° |
| 2026-04-27 15:54 | 28.07934 | 49.05930 | 25610 ft | 404 kts | 322° |
| 2026-04-27 15:54 | 28.10352 | 49.04347 | 25129 ft | 401 kts | 322° |
| 2026-04-27 15:55 | 28.12772 | 49.02756 | 24571 ft | 402 kts | 322° |
| 2026-04-27 15:55 | 28.14403 | 49.01682 | 24156 ft | 403 kts | 323° |
| 2026-04-27 15:55 | 28.17616 | 48.99567 | 23372 ft | 404 kts | 323° |
| 2026-04-27 15:55 | 28.20054 | 48.97963 | 22666 ft | 405 kts | 323° |
| 2026-04-27 15:56 | 28.22489 | 48.96361 | 22090 ft | 402 kts | 323° |
| 2026-04-27 15:56 | 28.24878 | 48.94791 | 21811 ft | 392 kts | 324° |
| 2026-04-27 15:56 | 28.27214 | 48.93256 | 21492 ft | 385 kts | 324° |
| 2026-04-27 15:56 | 28.29521 | 48.91733 | 20913 ft | 384 kts | 324° |
| 2026-04-27 15:57 | 28.31815 | 48.90211 | 20627 ft | 376 kts | 324° |
| 2026-04-27 15:57 | 28.34052 | 48.88728 | 20326 ft | 369 kts | 324° |
| 2026-04-27 15:57 | 28.36246 | 48.87270 | 19941 ft | 360 kts | 324° |
| 2026-04-27 15:57 | 28.38375 | 48.85856 | 19586 ft | 350 kts | 324° |
| 2026-04-27 15:58 | 28.40458 | 48.84471 | 19219 ft | 343 kts | 324° |
| 2026-04-27 15:58 | 28.42516 | 48.83098 | 18879 ft | 344 kts | 325° |
| 2026-04-27 15:58 | 28.44551 | 48.81740 | 18530 ft | 341 kts | 325° |
| 2026-04-27 15:58 | 28.46609 | 48.80368 | 18195 ft | 338 kts | 325° |
| 2026-04-27 15:59 | 28.48634 | 48.79017 | 17828 ft | 337 kts | 326° |
| 2026-04-27 15:59 | 28.50622 | 48.77692 | 17431 ft | 331 kts | 326° |
| 2026-04-27 15:59 | 28.52583 | 48.76386 | 17023 ft | 323 kts | 326° |
| 2026-04-27 15:59 | 28.54499 | 48.75109 | 16642 ft | 315 kts | 326° |
| 2026-04-27 16:00 | 28.56367 | 48.73847 | 16264 ft | 308 kts | 322° |
| 2026-04-27 16:00 | 28.57479 | 48.72875 | 15998 ft | 301 kts | 314° |
| 2026-04-27 16:00 | 28.59283 | 48.70531 | 15510 ft | 290 kts | 304° |
| 2026-04-27 16:00 | 28.60483 | 48.68712 | 15145 ft | 286 kts | 303° |
| 2026-04-27 16:01 | 28.61666 | 48.66904 | 14787 ft | 284 kts | 303° |
| 2026-04-27 16:01 | 28.62841 | 48.65111 | 14454 ft | 282 kts | 304° |
| 2026-04-27 16:01 | 28.64016 | 48.63329 | 14102 ft | 281 kts | 304° |
| 2026-04-27 16:01 | 28.65172 | 48.61577 | 13768 ft | 280 kts | 304° |
| 2026-04-27 16:02 | 28.66340 | 48.59813 | 13400 ft | 279 kts | 304° |
| 2026-04-27 16:02 | 28.67504 | 48.58054 | 13016 ft | 278 kts | 304° |
| 2026-04-27 16:02 | 28.68669 | 48.56295 | 12629 ft | 277 kts | 304° |
| 2026-04-27 16:02 | 28.69832 | 48.54541 | 12249 ft | 277 kts | 304° |
| 2026-04-27 16:03 | 28.70603 | 48.53378 | 12045 ft | 276 kts | 304° |
| 2026-04-27 16:03 | 28.71770 | 48.51615 | 12035 ft | 281 kts | 304° |
| 2026-04-27 16:03 | 28.72950 | 48.49838 | 11995 ft | 280 kts | 305° |
| 2026-04-27 16:03 | 28.74394 | 48.48371 | 11991 ft | 280 kts | 328° |
| 2026-04-27 16:04 | 28.76121 | 48.47306 | 11998 ft | 284 kts | 329° |
| 2026-04-27 16:04 | 28.77873 | 48.46243 | 12005 ft | 285 kts | 330° |
| 2026-04-27 16:04 | 28.79631 | 48.45175 | 12000 ft | 286 kts | 330° |
| 2026-04-27 16:04 | 28.81383 | 48.44105 | 11986 ft | 285 kts | 329° |
| 2026-04-27 16:05 | 28.83127 | 48.43034 | 11761 ft | 286 kts | 328° |
| 2026-04-27 16:05 | 28.84895 | 48.41943 | 11336 ft | 290 kts | 328° |
| 2026-04-27 16:05 | 28.86673 | 48.40844 | 10930 ft | 289 kts | 329° |
| 2026-04-27 16:05 | 28.88435 | 48.39754 | 10520 ft | 287 kts | 329° |
| 2026-04-27 16:06 | 28.90160 | 48.38685 | 10118 ft | 285 kts | 329° |
| 2026-04-27 16:06 | 28.91893 | 48.37610 | 9728 ft | 283 kts | 329° |
| 2026-04-27 16:06 | 28.93618 | 48.36539 | 9302 ft | 281 kts | 328° |
| 2026-04-27 16:06 | 28.95330 | 48.35477 | 8876 ft | 279 kts | 328° |
| 2026-04-27 16:07 | 28.97033 | 48.34419 | 8454 ft | 278 kts | 328° |
| 2026-04-27 16:07 | 28.98737 | 48.33360 | 8041 ft | 277 kts | 327° |
| 2026-04-27 16:07 | 29.00421 | 48.32313 | 7629 ft | 275 kts | 327° |
| 2026-04-27 16:07 | 29.02101 | 48.31268 | 7221 ft | 275 kts | 327° |
| 2026-04-27 16:08 | 29.03775 | 48.30224 | 6801 ft | 273 kts | 326° |
| 2026-04-27 16:08 | 29.05440 | 48.29185 | 6412 ft | 272 kts | 326° |
| 2026-04-27 16:08 | 29.07098 | 48.28149 | 6065 ft | 270 kts | 326° |
| 2026-04-27 16:08 | 29.08737 | 48.27126 | 5700 ft | 267 kts | 326° |
| 2026-04-27 16:09 | 29.10360 | 48.26112 | 5341 ft | 265 kts | 326° |
| 2026-04-27 16:09 | 29.13572 | 48.24104 | 4625 ft | 261 kts | 325° |
| 2026-04-27 16:09 | 29.15165 | 48.23109 | 4265 ft | 259 kts | 326° |
| 2026-04-27 16:10 | 29.18313 | 48.21138 | 3528 ft | 257 kts | 326° |
| 2026-04-27 16:10 | 29.21419 | 48.19196 | 3031 ft | 245 kts | 326° |
| 2026-04-27 16:11 | 29.22887 | 48.18280 | 3010 ft | 236 kts | 326° |
| 2026-04-27 16:11 | 29.25740 | 48.16490 | 3020 ft | 236 kts | 326° |
| 2026-04-27 16:12 | 29.28639 | 48.14671 | 3017 ft | 239 kts | 326° |
| 2026-04-27 16:12 | 29.30099 | 48.13756 | 3008 ft | 238 kts | 327° |
| 2026-04-27 16:12 | 29.32984 | 48.11948 | 3006 ft | 234 kts | 327° |
| 2026-04-27 16:13 | 29.34411 | 48.11052 | 3008 ft | 234 kts | 327° |
| 2026-04-27 16:13 | 29.37250 | 48.09271 | 2980 ft | 228 kts | 327° |
| 2026-04-27 16:13 | 29.38601 | 48.08414 | 2853 ft | 216 kts | 322° |
| 2026-04-27 16:14 | 29.40304 | 48.05818 | 2573 ft | 207 kts | 293° |
| 2026-04-27 16:14 | 29.41248 | 48.02872 | 2483 ft | 187 kts | 253° |
| 2026-04-27 16:15 | 29.40305 | 48.00129 | 2513 ft | 190 kts | 243° |
| 2026-04-27 16:15 | 29.39305 | 47.97289 | 2499 ft | 190 kts | 244° |
| 2026-04-27 16:16 | 29.38339 | 47.94499 | 2516 ft | 191 kts | 244° |
| 2026-04-27 16:16 | 29.37354 | 47.91654 | 2508 ft | 191 kts | 243° |
| 2026-04-27 16:17 | 29.36347 | 47.88873 | 2483 ft | 184 kts | 230° |
| 2026-04-27 16:17 | 29.34067 | 47.88083 | 2488 ft | 187 kts | 157° |
| 2026-04-27 16:18 | 29.31732 | 47.89426 | 2132 ft | 190 kts | 159° |
| 2026-04-27 16:18 | 29.29407 | 47.90680 | 1481 ft | 180 kts | 157° |
| 2026-04-27 16:19 | 29.28285 | 47.91261 | 1170 ft | 168 kts | 155° |
| 2026-04-27 16:19 | 29.27265 | 47.91835 | 996 ft | 160 kts | 155° |
| 2026-04-27 16:20 | 29.24656 | 47.93214 | 562 ft | 128 kts | 153° |
| 2026-04-27 16:20 | 29.23845 | 47.93651 | 432 ft | 129 kts | 153° |
| 2026-04-27 16:20 | 29.22347 | 47.94446 | 189 ft | 106 kts | 154° |
| 2026-04-27 16:21 | 29.21783 | 47.94749 | 185 ft | 69 kts | 154° |
| 2026-04-27 16:21 | 29.20650 | 47.95405 | 182 ft | 40 kts | 129° |
| 2026-04-27 16:22 | 29.20580 | 47.95616 | 197 ft | 25 kts | 30° |
| 2026-04-27 16:22 | 29.20985 | 47.95423 | 182 ft | 34 kts | 334° |